Bellview, West Virginia
Current Conditions -  °F | °C
As of 12:53 AM on Sunday 26 Oct 2014 (Local Time) from KCKB Reporting Station
Clear Clear  
Wind Chill: 59°   Ceiling: Unl
Heat Index: 59°   Visibility: 10mi
Dew Point: 48°   Wind: 9mph
Humidity: 67%   Direction: 280°W
Pressure: 29.85"   Gusts: NA
Location:  39.4675°N, 80.064°W
Report Text: KCKB 260453Z 28008KT 10SM CLR 15/09 A2985 RMK AO2 SLP100 T01500089 401890033
Loading
Personal Weather Stations






























Interactive Weather Map
Tropical Storm Tracking
New forecast layout! Learn more

10-Day Weather Forecast

Advertisements
Track Severe Weather on mobile